الصفحة الرئيسية
METAR-TAF:

METAR-TAF

مطار :

مطار هونولولو الدولي

هونولولو, هاواي, الولايات المتحدة

دائرة عرض: 21-19-39N, خط طول: 157-56-35W, ارتفاع: 3 متر

مراقبة الطقس الحالي

تاريخ ووقت الإصدار 24 دقيقة قبل الساعة 13:53UTC
رياح هادئة
درجة الحرارة 23°درجة مئوية
الرطوبة 73%
ضغط 1019 hPa
الرؤية: 16.1 كم
غيوم قليلة على ارتفاع 2400 قدم

METAR: PHNL 301353Z 00000KT 10SM FEW024 23/18 A3008 RMK AO2 SLP185 T02330183 VISNO RWY04R $

زمن: 04:17 (14:17 UTC)

توقعات

تاريخ ووقت الإصدار 2ساعات و 47 دقيقة قبل الساعة 11:30UTC
التوقعات صالحة من30 الساعة 12 UTC إلى 31 الساعة 18 UTC
ريح 8 عقدة من الشرق/الشمال الشرقي
الرؤية: 10 كم
غيوم قليلة على ارتفاع 2500 قدم
غيوم قليلة على ارتفاع 4500 قدم
من 30 الساعة 2000 UTC
ريح 15 عقدة من الشمال الشرقي تتزايد حتى 22 عقدة
الرؤية: 10 كم
غيوم قليلة على ارتفاع 3000 قدم
غيوم متفرقة على ارتفاع 5000 قدم
من 31 الساعة 0600 UTC
ريح 9 عقدة من الشرق/الشمال الشرقي
الرؤية: 10 كم
غيوم قليلة على ارتفاع 2500 قدم
غيوم متفرقة على ارتفاع 4500 قدم

TAF: PHNL 301130Z 3012/3118 06008KT P6SM FEW025 FEW045 FM302000 05015G22KT P6SM FEW030 SCT050 FM310600 06009KT P6SM FEW025 SCT045

أرصاد الطقس والتوقعات من أكثر من 4000 مطار (تقارير الطقس للمطار METAR والتنبؤ بالطقس بالمطارTAF).

المحطات المتاحة هي النقط الصفراء والحمراء على الخريطة.

حرك المؤشر فوق النقطة لمعرفة اسم المحطة.

ثم انقر لمعرفة أرصاد وتوقعات الطقس.

لتغيير الخارطة: اضغط على الأزرار الخضراء مع رمز الصليب الأسود للتكبير. على الزر الأخضر مع شرطة للتصغير، أو على الأسهم الخضراء للخرائط المجاورة.


METAR-TAF: